DFOS weather

Sideradougou Airport
Sideradougou, Comoe, Burkina Faso

Public forecast

Using degrees Celsius for public forecast. Weather courtesy of forecast.io.

METAR (pilot weather report)

Closest report is Bobo Dioulasso Airport, 29.8 nm (55.3 km) N. Retrieved 2019/04/22 07:00 UTC (51 minutes ago):

DFOO 220700Z 17003KT 150V210 CAVOK 26/22 Q1011

TAF (pilot weather forecast)

Closest forecast is Bobo Dioulasso Airport, 29.8 nm (55.3 km) N. Retrieved 2019/04/22 06:21 UTC (1 hour ago):

TAF DFOO 220500Z 2206/2306 20008KT 9999 FEW023 TEMPO 2214/2302 4000 TSRA SCT023 FEW036CB